Latest Weather Observations for Applethorpe

IDQ60801

Issued at 9:42 am EST Thursday 23 September 2021 (issued every 10 minutes, with the page automatically refreshed every 10 minutes)

About weather observations | Map of weather stations | Latest weather observations for QLD | Other Formats
Station Details ID: 041175 Name: APPLETHORPE Lat: -28.62 Lon: 151.95 Height: 871.6 m
Data from the previous 72 hours. | See also: Recent months at Applethorpe
Date/Time
EST
Temp
°C
App
Temp
°C
Dew
Point
°C
Rel
Hum
%
Delta-T
°C
Wind Press
QNH
hPa
Press
MSL
hPa
Rain since
9am
mm
Dir  Spd
km/h
Gust
km/h
Spd
kts
Gust
kts
23/09:30am 15.5 11.8 -0.3 34 7.0 W 9 17 5 9 1024.4 1023.0 0.0
23/09:00am 14.8 13.1 4.2 49 5.1 NE 2 7 1 4 1024.7 1023.2 0.0
23/08:30am 12.8 11.1 5.9 63 3.4 NE 4 7 2 4 1024.8 1023.3 0.0
23/08:00am 11.1 9.8 7.6 79 1.8 NE 4 7 2 4 1024.8 1023.3 0.0
23/07:30am 8.9 7.8 8.3 96 0.3 NE 4 6 2 3 1024.6 1023.1 0.0
23/07:00am 5.1 3.5 4.5 96 0.3 NE 2 4 1 2 1024.3 1022.9 0.0
23/06:30am 2.1 0.3 1.4 95 0.3 CALM 0 0 0 0 1023.9 1022.4 0.0
23/06:00am 1.1 -1.6 0.4 95 0.3 N 4 6 2 3 1023.6 1022.1 0.0
23/05:30am 0.7 -1.3 -0.2 94 0.3 CALM 0 0 0 0 1023.4 1021.9 0.0
23/05:00am 1.3 -0.6 0.6 95 0.3 CALM 0 0 0 0 1023.1 1021.7 0.0
23/04:30am 1.0 -1.0 0.1 94 0.3 CALM 0 0 0 0 1022.8 1021.3 0.0
23/04:00am 1.7 -0.2 0.8 94 0.4 CALM 0 0 0 0 1022.5 1021.0 0.0
23/03:30am 2.2 0.0 1.3 94 0.4 NE 2 2 1 1 1022.4 1020.9 0.0
23/03:00am 1.1 -0.9 0.1 93 0.4 CALM 0 0 0 0 1022.4 1020.9 0.0
23/02:30am 1.3 -0.6 0.3 93 0.4 CALM 0 0 0 0 1022.7 1021.2 0.0
23/02:00am 2.1 0.3 1.1 93 0.4 CALM 0 0 0 0 1022.9 1021.4 0.0
23/01:30am 2.4 0.3 1.4 93 0.4 NE 2 4 1 2 1023.2 1021.8 0.0
23/01:00am 2.1 -0.1 0.8 91 0.5 ENE 2 4 1 2 1023.5 1022.0 0.0
23/12:30am 2.2 0.3 0.6 89 0.6 CALM 0 0 0 0 1023.7 1022.2 0.0
23/12:00am 3.0 1.2 1.4 89 0.7 CALM 0 0 0 0 1023.9 1022.4 0.0
 
Date/Time
EST
Temp
°C
App
Temp
°C
Dew
Point
°C
Rel
Hum
%
Delta-T
°C
Wind Press
QNH
hPa
Press
MSL
hPa
Rain since
9am
mm
Dir  Spd
km/h
Gust
km/h
Spd
kts
Gust
kts
22/11:30pm 2.8 0.5 0.5 85 0.9 N 2 4 1 2 1024.0 1022.5 0.0
22/11:00pm 3.3 1.5 1.2 86 0.9 CALM 0 4 0 2 1024.1 1022.7 0.0
22/10:30pm 3.2 1.3 0.6 83 1.0 CALM 0 0 0 0 1024.0 1022.5 0.0
22/10:00pm 3.8 1.5 0.7 80 1.3 NE 2 4 1 2 1023.9 1022.4 0.0
22/09:30pm 4.2 2.4 0.9 79 1.4 CALM 0 0 0 0 1023.8 1022.3 0.0
22/09:00pm 5.1 3.3 1.4 77 1.5 CALM 0 0 0 0 1023.8 1022.3 0.0
22/08:30pm 5.5 3.7 0.9 72 1.9 CALM 0 0 0 0 1023.7 1022.2 0.0
22/08:00pm 6.1 4.2 0.6 68 2.3 CALM 0 0 0 0 1023.6 1022.1 0.0
22/07:30pm 7.2 4.5 0.2 61 2.9 NW 4 6 2 3 1023.5 1022.0 0.0
22/07:00pm 8.4 6.3 -0.6 53 3.7 CALM 0 0 0 0 1023.0 1021.5 0.0
22/06:30pm 10.3 8.2 -0.8 46 4.6 CALM 0 0 0 0 1022.5 1021.0 0.0
22/06:00pm 12.1 9.5 -1.8 38 5.8 S 2 4 1 2 1022.2 1020.7 0.0
22/05:30pm 14.3 10.3 -2.1 32 6.9 SW 9 17 5 9 1021.5 1020.0 0.0
22/05:00pm 15.3 11.4 -1.7 31 7.3 SW 9 19 5 10 1021.2 1019.7 0.0
22/04:30pm 16.0 11.7 -1.5 30 7.6 WSW 11 20 6 11 1020.7 1019.2 0.0
22/04:00pm 16.3 11.5 -2.2 28 7.9 WSW 13 22 7 12 1020.5 1019.0 0.0
22/03:30pm 16.6 11.9 -2.0 28 8.0 SW 13 20 7 11 1020.3 1018.8 0.0
22/03:00pm 16.5 12.2 -2.0 28 8.0 W 11 22 6 12 1020.3 1018.8 0.0
22/02:30pm 16.6 12.3 -2.0 28 8.0 W 11 20 6 11 1020.3 1018.8 0.0
22/02:00pm 15.9 11.9 -2.6 28 7.8 WSW 9 17 5 9 1020.5 1019.0 0.0
22/01:30pm 15.8 11.4 -2.2 29 7.7 WSW 11 26 6 14 1020.5 1019.0 0.0
22/01:00pm 15.9 12.0 -1.6 30 7.6 WSW 9 17 5 9 1020.9 1019.3 0.0
22/12:30pm 15.3 10.5 -2.2 30 7.4 WSW 13 24 7 13 1021.1 1019.5 0.0
22/12:00pm 15.2 10.7 -3.2 28 7.6 WSW 11 22 6 12 1021.3 1019.8 0.0
22/11:30am 14.8 10.7 -3.0 29 7.4 WSW 9 20 5 11 1021.6 1020.1 0.0
22/11:00am 14.6 11.1 -3.2 29 7.3 S 6 13 3 7 1022.0 1020.5 0.0
22/10:30am 14.4 11.1 -1.2 34 6.7 S 6 9 3 5 1022.3 1020.8 0.0
22/10:00am 13.3 9.4 -1.4 36 6.2 SE 9 15 5 8 1022.4 1020.9 0.0
22/09:30am 12.4 8.5 -1.5 38 5.8 SSE 9 20 5 11 1022.4 1020.9 0.0
22/09:00am 11.5 8.1 -2.0 39 5.5 SE 6 13 3 7 1022.0 1020.5 0.0
22/08:30am 9.7 6.5 -0.2 50 4.2 SE 6 9 3 5 1022.0 1020.5 0.0
22/08:00am 7.7 4.6 0.0 58 3.2 S 6 7 3 4 1022.2 1020.7 0.0
22/07:30am 5.5 2.1 -0.8 64 2.5 SSW 7 11 4 6 1021.8 1020.3 0.0
22/07:00am 2.7 -0.1 -0.4 80 1.2 SW 4 6 2 3 1021.3 1019.8 0.0
22/06:30am 0.3 -2.2 -1.0 91 0.5 E 2 6 1 3 1021.1 1019.5 0.0
22/06:00am -1.4 -4.2 -3.6 85 0.7 WNW 2 6 1 3 1020.6 1019.1 0.0
22/05:30am -0.5 -3.7 -3.2 82 0.9 SSW 4 6 2 3 1020.3 1018.8 0.0
22/05:00am 0.4 -3.0 -2.3 82 1.0 SW 6 9 3 5 1019.9 1018.3 0.0
22/04:30am -1.1 -4.0 -4.1 80 1.0 S 2 4 1 2 1019.3 1017.8 0.0
22/04:00am 0.8 -2.0 -3.3 74 1.5 S 2 4 1 2 1019.2 1017.7 0.0
22/03:30am 1.9 -1.7 -2.2 74 1.5 SSW 7 11 4 6 1019.1 1017.6 0.0
22/03:00am 0.4 -2.1 -3.7 74 1.5 CALM 0 6 0 3 1019.2 1017.7 0.0
22/02:30am 2.5 -1.0 -2.8 68 1.9 SSW 6 9 3 5 1019.3 1017.8 0.0
22/02:00am 3.0 -0.6 -2.1 69 1.9 SW 7 13 4 7 1019.5 1018.0 0.0
22/01:30am 1.8 -1.9 -2.7 72 1.6 WSW 7 13 4 7 1019.8 1018.2 0.0
22/01:00am 2.6 -1.0 -2.3 70 1.8 SW 7 13 4 7 1020.2 1018.7 0.0
22/12:30am 2.6 -1.4 -2.1 71 1.7 SW 9 17 5 9 1020.5 1019.0 0.0
22/12:00am 2.3 -1.1 -2.2 72 1.7 SW 6 9 3 5 1020.6 1019.1 0.0
 
Date/Time
EST
Temp
°C
App
Temp
°C
Dew
Point
°C
Rel
Hum
%
Delta-T
°C
Wind Press
QNH
hPa
Press
MSL
hPa
Rain since
9am
mm
Dir  Spd
km/h
Gust
km/h
Spd
kts
Gust
kts
21/11:30pm 2.6 -1.4 -2.1 71 1.7 SW 9 15 5 8 1020.6 1019.1 0.0
21/11:00pm 2.6 -1.4 -2.1 71 1.7 SW 9 19 5 10 1020.4 1018.9 0.0
21/10:30pm 2.6 -1.8 -2.1 71 1.7 SW 11 17 6 9 1020.0 1018.4 0.0
21/10:00pm 2.8 -1.2 -2.3 69 1.9 SW 9 17 5 9 1020.3 1018.8 0.0
21/09:30pm 3.1 -1.3 -2.4 67 2.0 SW 11 20 6 11 1020.4 1018.9 0.0
21/09:00pm 3.2 -1.2 -2.5 66 2.1 SW 11 15 6 8 1020.4 1018.9 0.0
21/08:30pm 3.8 -1.0 -2.6 63 2.4 SSW 13 24 7 13 1020.0 1018.4 0.0
21/08:00pm 4.2 -1.4 -2.9 60 2.6 SSW 17 26 9 14 1019.9 1018.3 0.0
21/07:30pm 4.6 -1.1 -3.4 56 2.9 SW 17 30 9 16 1019.2 1017.7 0.0
21/07:00pm 5.2 0.1 -5.5 46 3.8 SW 13 22 7 12 1018.7 1017.1 0.0
21/06:30pm 5.7 -0.2 -5.9 43 4.1 SSW 17 28 9 15 1018.1 1016.6 0.0
21/06:00pm 6.3 0.1 -4.7 45 4.0 SW 19 32 10 17 1017.4 1015.8 0.0
21/05:30pm 6.3 -0.5 -4.7 45 4.0 WSW 22 37 12 20 1016.7 1015.1 0.0
21/05:00pm 7.2 0.5 -3.9 45 4.2 WSW 22 35 12 19 1016.2 1014.6 0.0
21/04:30pm 7.9 0.8 -4.2 42 4.5 WSW 24 41 13 22 1016.0 1014.3 0.0
21/04:00pm 7.7 0.8 -5.7 38 4.8 WSW 22 35 12 19 1015.7 1014.1 0.0
21/03:30pm 6.6 -0.4 -3.9 47 3.9 SW 24 44 13 24 1015.8 1014.2 0.0
21/03:00pm 8.1 0.5 -5.7 37 5.0 WSW 26 46 14 25 1015.2 1013.6 0.0
21/02:30pm 9.7 1.7 -5.8 33 5.7 W 28 48 15 26 1014.6 1013.0 0.0
21/02:08pm 8.9 1.0 -5.0 37 5.2 WSW 28 50 15 27 1014.6 1013.0 0.0
21/02:00pm 9.8 3.4 -4.5 36 5.5 WSW 20 41 11 22 1014.4 1012.8 0.0
21/01:30pm 10.8 3.1 -3.3 37 5.6 WSW 28 48 15 26 1014.5 1012.9 0.0
21/01:26pm 10.5 2.7 -3.9 36 5.6 WSW 28 48 15 26 1014.5 1012.9 0.0
21/01:00pm 11.8 5.6 -2.8 36 5.9 WSW 20 39 11 21 1014.5 1012.9 0.0
21/12:30pm 10.6 4.3 -1.1 44 4.9 W 22 48 12 26 1014.9 1013.2 0.0
21/12:00pm 10.6 3.8 -2.1 41 5.2 WSW 24 44 13 24 1014.9 1013.2 0.0
21/11:30am 11.1 4.6 -2.3 39 5.5 WSW 22 52 12 28 1015.0 1013.3 0.0
21/11:00am 11.3 4.8 -2.1 39 5.5 WSW 22 37 12 20 1015.2 1013.6 0.0
21/10:33am 10.9 3.1 -3.6 36 5.7 WSW 28 48 15 26 1015.3 1013.7 0.0
21/10:30am 10.9 3.5 -3.6 36 5.7 WSW 26 48 14 26 1015.4 1013.8 0.0
21/10:22am 10.8 3.0 -4.0 35 5.8 WSW 28 50 15 27 1015.4 1013.8 0.0
21/10:00am 10.9 3.7 -2.1 40 5.3 WSW 26 44 14 24 1015.3 1013.7 0.0
21/09:30am 11.3 5.4 -1.1 42 5.2 WSW 20 37 11 20 1015.4 1013.8 0.0
21/09:00am 11.1 4.6 0.5 48 4.6 WSW 24 41 13 22 1015.3 1013.7 0.6
21/08:30am 11.8 6.0 -1.3 40 5.5 WSW 19 33 10 18 1014.6 1013.0 0.6
21/08:00am 11.7 7.8 1.4 49 4.6 SW 11 19 6 10 1014.4 1012.8 0.6
21/07:30am 10.9 6.4 2.0 54 4.0 SSW 15 24 8 13 1014.5 1012.9 0.6
21/07:00am 10.2 6.2 2.6 59 3.4 SW 13 20 7 11 1014.5 1012.9 0.6
21/06:30am 9.3 5.7 3.1 65 2.8 SW 11 19 6 10 1014.3 1012.7 0.6
21/06:00am 8.7 5.1 2.7 66 2.7 WSW 11 17 6 9 1013.9 1012.2 0.6
21/05:30am 8.9 6.0 2.7 65 2.8 WSW 7 13 4 7 1013.7 1012.0 0.6
21/05:00am 10.4 6.4 3.0 60 3.4 W 13 20 7 11 1013.0 1011.3 0.6
21/04:30am 11.4 8.1 2.7 55 4.0 WSW 9 19 5 10 1012.6 1010.9 0.6
21/04:00am 12.7 9.0 2.6 50 4.7 W 11 17 6 9 1012.4 1010.7 0.6
21/03:30am 12.9 9.8 3.8 54 4.3 W 9 15 5 8 1012.4 1010.7 0.6
21/03:00am 11.9 9.8 6.0 67 2.9 WNW 6 9 3 5 1012.4 1010.7 0.6
21/02:30am 12.3 11.1 8.2 76 2.1 NW 4 9 2 5 1012.8 1011.1 0.6
21/02:00am 12.3 11.4 7.6 73 2.4 NW 2 6 1 3 1013.1 1011.5 0.6
21/01:30am 13.8 12.0 7.3 65 3.3 W 6 13 3 7 1013.6 1011.9 0.6
21/01:00am 14.5 13.0 8.5 67 3.2 W 6 11 3 6 1014.3 1012.7 0.6
21/12:30am 14.7 13.0 9.7 72 2.7 WSW 9 17 5 9 1014.6 1013.0 0.6
21/12:00am 15.7 13.9 9.4 66 3.4 W 9 17 5 9 1014.5 1012.9 0.4
 
Date/Time
EST
Temp
°C
App
Temp
°C
Dew
Point
°C
Rel
Hum
%
Delta-T
°C
Wind Press
QNH
hPa
Press
MSL
hPa
Rain since
9am
mm
Dir  Spd
km/h
Gust
km/h
Spd
kts
Gust
kts
20/11:30pm 15.2 14.7 10.8 75 2.4 WNW 4 7 2 4 1014.5 1012.9 0.4
20/11:00pm 14.9 14.4 10.7 76 2.3 WNW 4 6 2 3 1014.9 1013.2 0.4
20/10:30pm 14.8 14.4 11.2 79 2.0 WNW 4 7 2 4 1015.4 1013.8 0.4
20/10:00pm 14.4 14.0 11.2 81 1.8 NW 4 6 2 3 1015.3 1013.7 0.4
20/09:30pm 14.7 14.4 11.5 81 1.8 NNW 4 6 2 3 1015.5 1013.9 0.4
20/09:00pm 15.1 14.8 11.5 79 2.0 NNW 4 6 2 3 1015.8 1014.2 0.4
20/08:30pm 16.2 15.6 11.8 75 2.5 N 6 9 3 5 1016.0 1014.3 0.4
20/08:00pm 17.1 16.1 12.2 73 2.8 N 9 19 5 10 1016.4 1014.8 0.4
20/07:30pm 15.4 15.3 12.2 81 1.8 NW 4 6 2 3 1016.2 1014.6 0.4
20/07:00pm 14.7 15.3 11.8 83 1.6 CALM 0 2 0 1 1016.0 1014.3 0.4
20/06:30pm 15.4 15.8 11.4 77 2.2 CALM 0 0 0 0 1015.6 1014.0 0.4
20/06:00pm 17.0 16.8 11.7 71 3.0 N 4 6 2 3 1015.7 1014.1 0.4
20/05:30pm 18.6 18.6 11.2 62 4.2 NNW 2 4 1 2 1015.5 1013.9 0.4
20/05:00pm 19.5 18.1 10.8 57 4.9 WSW 9 17 5 9 1015.6 1014.0 0.4
20/04:30pm 19.4 17.8 11.4 60 4.6 W 11 24 6 13 1015.8 1014.2 0.4
20/04:00pm 22.8 20.2 7.8 38 8.2 W 11 20 6 11 1015.1 1013.5 0.0
20/03:30pm 23.6 21.1 9.6 41 7.9 W 13 22 7 12 1015.5 1013.9 0.0
20/03:00pm 23.5 20.8 8.8 39 8.2 NW 13 28 7 15 1016.0 1014.3 0.0
20/02:30pm 23.9 21.5 8.7 38 8.5 WNW 11 24 6 13 1016.4 1014.8 0.0
20/02:00pm 23.5 21.1 9.9 42 7.7 NW 13 24 7 13 1016.8 1015.2 0.0
20/01:30pm 22.3 19.8 9.8 45 7.1 WNW 13 26 7 14 1017.6 1016.0 0.0
20/01:00pm 22.9 20.4 9.7 43 7.5 WNW 13 30 7 16 1018.0 1016.4 0.0
20/12:30pm 23.1 21.4 9.8 43 7.5 WNW 9 28 5 15 1018.5 1016.9 0.0
20/12:00pm 23.2 21.0 10.9 46 7.1 NW 13 26 7 14 1019.0 1017.4 0.0
20/11:30am 22.5 19.6 9.6 44 7.3 NNW 15 24 8 13 1019.5 1018.0 0.0
20/11:00am 22.4 19.5 9.6 44 7.2 NNW 15 26 8 14 1020.3 1018.8 0.0
20/10:30am 21.4 19.2 9.3 46 6.7 NW 11 22 6 12 1021.0 1019.4 0.0
20/10:00am 21.2 18.8 10.1 49 6.3 N 13 22 7 12 1021.2 1019.7 0.0

Other formats

Comma delimited format used in spreadsheet applications
http://www.bom.gov.au/fwo/IDQ60801/IDQ60801.94553.axf

JavaScript Object Notation format (JSON) in row-major order
http://www.bom.gov.au/fwo/IDQ60801/IDQ60801.94553.json

Data quality

Most of these data are generated automatically and are frequently updated. Quality checks on data are not normally performed. It is possible for incorrect values to appear. Refer to information at About Latest Weather Observations and please check the disclaimer before using these data.